Time;durP1;ratioP1;P1;durP2;ratioP2;P2;SDS_P1;SDS_P2;PMS_P1;PMS_P2;Temp;Humidity;BMP_temperature;BMP_pressure;BME280_temperature;BME280_humidity;BME280_pressure;Samples;Min_cycle;Max_cycle;Signal;HPM_P1;HPM_P2
2022/08/09 00:00:23;;;;;;;3.30;2.70;;;;;;;11.47;100.00;93697.03;2127302;27;20449;-70
2022/08/09 00:01:24;;;;;;;3.20;2.60;;;;;;;11.38;100.00;93692.19;2127377;27;20022;-70
2022/08/09 00:02:25;;;;;;;3.30;2.90;;;;;;;11.42;100.00;93692.16;2127275;27;20460;-72
2022/08/09 00:03:26;;;;;;;4.65;2.47;;;;;;;11.36;100.00;93691.84;2127348;27;20035;-70
2022/08/09 00:04:27;;;;;;;3.03;2.83;;;;;;;11.23;100.00;93696.25;2127297;27;20033;-70
2022/08/09 00:05:29;;;;;;;3.40;3.10;;;;;;;11.36;100.00;93689.16;2129261;27;20026;-70
2022/08/09 00:06:30;;;;;;;3.28;2.97;;;;;;;11.47;100.00;93689.00;2129029;27;20430;-73
2022/08/09 00:07:31;;;;;;;3.13;2.80;;;;;;;11.45;100.00;93680.63;2112372;28;20077;-70
2022/08/09 00:08:32;;;;;;;3.63;3.03;;;;;;;11.42;100.00;93686.78;2109879;28;20031;-70
2022/08/09 00:09:33;;;;;;;3.10;2.90;;;;;;;11.33;100.00;93682.72;2127449;27;20453;-72
2022/08/09 00:10:34;;;;;;;3.08;2.88;;;;;;;11.20;100.00;93683.69;2129915;27;20031;-70
2022/08/09 00:11:36;;;;;;;3.10;2.80;;;;;;;11.22;100.00;93681.34;2128300;27;20023;-70
2022/08/09 00:12:37;;;;;;;4.57;3.10;;;;;;;11.27;100.00;93681.66;2127233;27;20027;-75
2022/08/09 00:13:38;;;;;;;3.13;2.83;;;;;;;11.24;100.00;93679.78;2127520;27;20034;-73
2022/08/09 00:14:39;;;;;;;2.90;2.70;;;;;;;11.25;100.00;93677.88;2127067;27;20070;-71
2022/08/09 00:15:40;;;;;;;3.53;2.90;;;;;;;11.23;100.00;93680.19;2129030;27;20518;-70
2022/08/09 00:16:41;;;;;;;4.60;2.88;;;;;;;11.27;100.00;93676.28;2131699;27;20448;-72
2022/08/09 00:17:42;;;;;;;3.38;3.08;;;;;;;11.15;100.00;93670.75;2118130;27;20027;-70
2022/08/09 00:18:43;;;;;;;4.05;3.47;;;;;;;11.14;100.00;93677.25;2118191;27;20080;-70
2022/08/09 00:19:44;;;;;;;4.13;3.08;;;;;;;11.23;100.00;93682.88;2127292;27;20034;-73
2022/08/09 00:20:47;;;;;;;4.45;3.72;;;;;;;11.28;100.00;93671.69;2127401;27;20033;-72
2022/08/09 00:21:48;;;;;;;4.32;3.47;;;;;;;11.22;100.00;93676.00;2127235;27;20038;-70
2022/08/09 00:22:48;;;;;;;5.78;3.30;;;;;;;11.10;100.00;93675.38;2127150;27;20437;-70
2022/08/09 00:23:49;;;;;;;4.20;3.20;;;;;;;11.13;100.00;93665.81;2127378;27;20048;-71
2022/08/09 00:24:50;;;;;;;5.78;3.25;;;;;;;11.07;100.00;93672.78;2127188;27;20509;-70
2022/08/09 00:25:51;;;;;;;3.55;2.90;;;;;;;11.17;100.00;93671.88;2126743;27;20067;-71
2022/08/09 00:26:52;;;;;;;4.03;3.45;;;;;;;11.07;100.00;93673.53;2127214;27;20106;-70
2022/08/09 00:27:53;;;;;;;3.40;3.10;;;;;;;11.04;100.00;93674.34;2127077;27;20029;-71
2022/08/09 00:28:54;;;;;;;3.45;3.05;;;;;;;11.08;100.00;93672.38;2127213;27;20042;-70
2022/08/09 00:29:55;;;;;;;4.57;3.08;;;;;;;11.00;100.00;93672.88;2127230;27;20094;-70
2022/08/09 00:30:57;;;;;;;3.60;3.10;;;;;;;10.86;100.00;93670.41;2127127;27;20019;-73
2022/08/09 00:31:58;;;;;;;5.60;3.50;;;;;;;10.97;100.00;93674.44;2128354;27;20031;-72
2022/08/09 00:32:59;;;;;;;4.35;3.70;;;;;;;11.00;100.00;93675.56;2126978;27;20030;-71
2022/08/09 00:34:00;;;;;;;3.75;3.17;;;;;;;11.05;100.00;93667.81;2127145;27;20360;-71
2022/08/09 00:35:02;;;;;;;3.45;3.25;;;;;;;10.99;100.00;93674.81;2126916;27;20030;-70
2022/08/09 00:36:03;;;;;;;4.22;3.50;;;;;;;11.04;100.00;93671.66;2126868;27;20031;-71
2022/08/09 00:37:04;;;;;;;4.65;3.30;;;;;;;11.06;100.00;93679.28;2129942;27;20737;-71
2022/08/09 00:38:05;;;;;;;3.55;3.25;;;;;;;11.13;100.00;93678.44;2127976;27;20850;-70
2022/08/09 00:39:06;;;;;;;3.78;3.28;;;;;;;10.93;100.00;93683.66;2121355;27;20076;-70
2022/08/09 00:40:08;;;;;;;4.53;3.33;;;;;;;10.91;100.00;93676.06;2109602;28;20859;-71
2022/08/09 00:41:10;;;;;;;5.75;3.33;;;;;;;10.93;100.00;93673.75;2118236;27;20034;-70
2022/08/09 00:42:11;;;;;;;5.97;3.33;;;;;;;10.91;100.00;93669.97;2129059;27;20030;-70
2022/08/09 00:43:12;;;;;;;5.60;3.10;;;;;;;10.74;100.00;93669.03;2126954;27;20027;-70
2022/08/09 00:44:13;;;;;;;5.55;3.50;;;;;;;10.80;100.00;93675.47;2117963;27;20473;-70
2022/08/09 00:45:14;;;;;;;4.50;3.45;;;;;;;10.75;100.00;93673.22;2109848;27;20027;-73
2022/08/09 00:46:16;;;;;;;5.47;3.65;;;;;;;10.75;100.00;93676.66;2121664;27;20457;-70
2022/08/09 00:47:17;;;;;;;5.88;3.30;;;;;;;10.76;100.00;93672.09;2120977;27;20035;-70
2022/08/09 00:48:18;;;;;;;3.28;2.97;;;;;;;10.77;100.00;93676.25;2126855;27;20034;-70
2022/08/09 00:49:19;;;;;;;4.43;3.53;;;;;;;10.73;100.00;93676.31;2128192;27;20125;-70
2022/08/09 00:50:20;;;;;;;3.78;3.47;;;;;;;10.80;100.00;93680.81;2126939;27;20030;-70
2022/08/09 00:51:21;;;;;;;3.60;3.30;;;;;;;10.77;100.00;93676.25;2127028;27;20091;-72
2022/08/09 00:52:25;;;;;;;4.07;3.45;;;;;;;10.73;100.00;93683.56;2117291;27;20035;-73
2022/08/09 00:53:26;;;;;;;3.60;3.30;;;;;;;10.74;100.00;93682.41;2119952;27;20071;-72
2022/08/09 00:54:28;;;;;;;4.15;3.25;;;;;;;10.81;100.00;93687.66;2126135;27;20026;-72
2022/08/09 00:55:28;;;;;;;4.57;3.25;;;;;;;10.85;100.00;93685.72;2126582;27;20034;-70
2022/08/09 00:56:29;;;;;;;3.58;3.15;;;;;;;10.84;100.00;93681.50;2126953;27;20107;-70
2022/08/09 00:57:31;;;;;;;4.22;3.83;;;;;;;10.92;100.00;93682.91;2126680;27;20041;-70
2022/08/09 00:58:35;;;;;;;4.68;3.30;;;;;;;10.76;100.00;93693.47;2128136;27;20058;-70
2022/08/09 00:59:42;;;;;;;3.67;3.38;;;;;;;10.80;100.00;93683.50;2126853;27;20027;-69
2022/08/09 01:00:43;;;;;;;4.10;3.72;;;;;;;10.62;100.00;93682.94;2126913;27;20023;-71
2022/08/09 01:01:47;;;;;;;4.10;3.80;;;;;;;10.64;100.00;93678.72;2117803;27;20532;-70
2022/08/09 01:03:12;;;;;;;3.72;3.38;;;;;;;10.65;100.00;93679.47;2118541;27;20373;-72
2022/08/09 01:04:32;;;;;;;3.92;3.35;;;;;;;10.64;100.00;93680.63;2119922;27;20091;-72
2022/08/09 01:05:44;;;;;;;6.40;3.50;;;;;;;10.64;100.00;93683.31;2126720;27;20079;-70
2022/08/09 01:07:11;;;;;;;3.50;3.20;;;;;;;10.67;100.00;93680.59;2127346;27;20384;-71
2022/08/09 01:08:22;;;;;;;3.67;3.38;;;;;;;10.69;100.00;93680.19;2099769;28;20127;-70
2022/08/09 01:09:31;;;;;;;4.97;3.55;;;;;;;10.70;100.00;93676.34;2125866;27;20110;-70
2022/08/09 01:10:57;;;;;;;3.70;3.40;;;;;;;10.69;100.00;93674.84;2126841;27;20050;-70
2022/08/09 01:12:23;;;;;;;6.50;3.50;;;;;;;10.68;100.00;93678.69;2126798;27;20041;-70
2022/08/09 01:13:45;;;;;;;5.10;4.10;;;;;;;10.65;100.00;93679.47;2119073;27;20037;-72
2022/08/09 01:14:58;;;;;;;4.05;3.70;;;;;;;10.58;100.00;93683.75;2113816;27;20789;-70
2022/08/09 01:16:02;;;;;;;5.45;3.55;;;;;;;10.49;100.00;93680.81;2118229;27;20026;-71
2022/08/09 01:17:10;;;;;;;5.40;3.88;;;;;;;10.44;100.00;93678.56;2118192;27;20509;-71
2022/08/09 01:18:17;;;;;;;4.28;3.85;;;;;;;10.41;100.00;93678.63;2118253;27;20031;-72
2022/08/09 01:19:39;;;;;;;4.40;4.00;;;;;;;10.53;100.00;93676.16;2120946;27;20047;-71
2022/08/09 01:21:06;;;;;;;3.85;3.55;;;;;;;10.54;100.00;93668.94;2118161;27;20361;-70
2022/08/09 01:22:32;;;;;;;4.85;3.90;;;;;;;10.46;100.00;93672.84;2118265;27;20062;-70
2022/08/09 01:23:56;;;;;;;4.63;4.10;;;;;;;10.31;100.00;93683.69;2118296;27;20035;-70
2022/08/09 01:25:34;;;;;;;3.95;3.65;;;;;;;10.37;100.00;93669.91;2119212;27;20022;-70
2022/08/09 01:27:09;;;;;;;3.67;3.38;;;;;;;10.47;100.00;93674.34;2118276;27;20024;-70
2022/08/09 01:28:11;;;;;;;4.78;4.03;;;;;;;10.43;100.00;93674.38;2118235;27;20053;-70
2022/08/09 01:29:14;;;;;;;4.10;3.70;;;;;;;10.42;100.00;93672.88;2117957;27;20031;-70
2022/08/09 01:30:16;;;;;;;7.93;3.90;;;;;;;10.16;100.00;93684.22;2118101;27;20380;-70
2022/08/09 01:31:21;;;;;;;4.53;4.13;;;;;;;10.18;100.00;93684.56;2118270;27;20083;-70
2022/08/09 01:32:29;;;;;;;4.40;3.80;;;;;;;10.21;100.00;93681.88;2118155;27;20109;-72
2022/08/09 01:33:37;;;;;;;4.15;3.75;;;;;;;10.23;100.00;93681.50;2118175;27;20136;-71
2022/08/09 01:34:41;;;;;;;7.32;3.95;;;;;;;10.30;100.00;93670.72;2119400;27;20047;-73
2022/08/09 01:36:02;;;;;;;3.80;3.50;;;;;;;10.26;100.00;93675.34;2118055;27;20357;-71
2022/08/09 01:37:06;;;;;;;4.13;3.70;;;;;;;10.34;100.00;93666.84;2118144;27;20038;-70
2022/08/09 01:38:19;;;;;;;5.05;3.75;;;;;;;10.39;100.00;93668.31;2118079;27;20032;-70
2022/08/09 01:39:23;;;;;;;3.92;3.60;;;;;;;10.31;100.00;93672.25;2118116;27;20031;-70
2022/08/09 01:40:27;;;;;;;4.68;3.78;;;;;;;10.33;100.00;93675.28;2119227;27;20037;-70
2022/08/09 01:41:30;;;;;;;4.88;3.80;;;;;;;10.39;100.00;93668.31;2118134;27;20023;-70
2022/08/09 01:42:32;;;;;;;4.53;4.13;;;;;;;10.30;100.00;93668.06;2118117;27;20019;-69
2022/08/09 01:43:35;;;;;;;5.85;3.80;;;;;;;10.30;100.00;93668.06;2118130;27;20471;-72
2022/08/09 01:44:40;;;;;;;4.20;3.90;;;;;;;10.31;100.00;93667.66;2118182;27;20034;-72
2022/08/09 01:45:42;;;;;;;4.50;4.00;;;;;;;10.40;100.00;93672.50;2116606;27;20028;-70
2022/08/09 01:46:45;;;;;;;4.43;4.13;;;;;;;10.23;100.00;93676.16;2117484;27;20059;-70
2022/08/09 01:47:47;;;;;;;5.70;4.05;;;;;;;10.04;100.00;93675.56;2118020;27;20031;-70
2022/08/09 01:48:50;;;;;;;4.22;3.83;;;;;;;10.16;100.00;93678.88;2117946;27;20030;-72
2022/08/09 01:49:54;;;;;;;4.20;3.90;;;;;;;10.13;100.00;93671.66;2117969;27;20030;-70
2022/08/09 01:50:57;;;;;;;4.68;4.25;;;;;;;10.07;100.00;93676.69;2117400;27;20041;-71
2022/08/09 01:52:03;;;;;;;4.63;4.22;;;;;;;10.02;100.00;93675.22;2118037;27;20027;-72
2022/08/09 01:53:06;;;;;;;4.40;4.00;;;;;;;10.07;100.00;93679.34;2118104;27;20457;-71
2022/08/09 01:54:08;;;;;;;7.28;3.75;;;;;;;10.13;100.00;93680.44;2118133;27;20031;-72
2022/08/09 01:55:10;;;;;;;4.22;3.88;;;;;;;10.04;100.00;93674.81;2117865;27;20039;-70
2022/08/09 01:56:13;;;;;;;4.75;4.00;;;;;;;9.95;100.00;93677.94;2117648;27;20110;-71
2022/08/09 01:57:18;;;;;;;4.18;3.88;;;;;;;9.99;100.00;93678.66;2118068;27;20031;-72
2022/08/09 01:58:20;;;;;;;7.30;4.32;;;;;;;10.00;100.00;93680.19;2118012;27;20373;-70
2022/08/09 01:59:22;;;;;;;4.68;4.22;;;;;;;9.99;100.00;93678.66;2118323;27;20118;-71
2022/08/09 02:00:25;;;;;;;4.43;4.07;;;;;;;9.91;100.00;93681.81;2118172;27;20110;-70
2022/08/09 02:01:27;;;;;;;4.97;4.50;;;;;;;10.07;100.00;93685.47;2120702;27;20043;-70
2022/08/09 02:02:31;;;;;;;4.63;4.20;;;;;;;10.04;100.00;93686.25;2118056;27;20051;-71
2022/08/09 02:03:35;;;;;;;4.68;4.28;;;;;;;9.97;100.00;93680.25;2115085;27;20034;-70
2022/08/09 02:04:38;;;;;;;6.95;4.07;;;;;;;9.99;100.00;93689.34;2121433;27;20023;-71
2022/08/09 02:05:41;;;;;;;4.90;4.40;;;;;;;9.91;100.00;93681.81;2117485;27;20038;-72
2022/08/09 02:08:09;;;;;;;4.40;4.00;;;;;;;10.08;100.00;93681.63;2117873;27;20031;-70
2022/08/09 02:09:13;;;;;;;4.95;4.00;;;;;;;10.09;100.00;93683.13;2118026;28;20545;-71
2022/08/09 02:10:19;;;;;;;4.85;4.43;;;;;;;9.99;100.00;93684.00;2117825;27;20023;-73
2022/08/09 02:11:20;;;;;;;4.53;4.13;;;;;;;10.01;100.00;93691.66;2117863;28;20374;-70
2022/08/09 02:12:24;;;;;;;7.32;4.45;;;;;;;9.99;100.00;93686.69;2117978;28;20105;-70
2022/08/09 02:14:50;;;;;;;;;;;;;;;10.00;100.00;93693.53;2137425;27;21257;-68
2022/08/09 02:15:54;;;;;;;5.70;4.45;;;;;;;9.96;100.00;93684.03;2128837;27;20053;-68
2022/08/09 02:16:56;;;;;;;4.97;4.53;;;;;;;9.93;100.00;93685.59;2128474;27;20063;-71
2022/08/09 02:17:59;;;;;;;5.38;4.88;;;;;;;9.82;100.00;93685.69;2128854;27;20449;-72
2022/08/09 02:19:00;;;;;;;4.82;4.40;;;;;;;9.77;100.00;93688.81;2129040;27;20058;-70
2022/08/09 02:20:02;;;;;;;5.53;4.80;;;;;;;9.88;100.00;93694.06;2129392;27;20034;-71
2022/08/09 02:21:14;;;;;;;5.13;4.65;;;;;;;9.85;100.00;93692.16;2129337;27;20109;-68
2022/08/09 02:22:37;;;;;;;5.50;4.70;;;;;;;9.97;100.00;93686.34;2121512;27;20038;-70
2022/08/09 02:23:42;;;;;;;5.47;5.00;;;;;;;9.93;100.00;93685.59;2129587;27;20042;-69
2022/08/09 02:24:49;;;;;;;4.72;4.32;;;;;;;9.92;100.00;93688.66;2125520;27;20460;-69
2022/08/09 02:25:54;;;;;;;5.20;4.70;;;;;;;9.93;100.00;93693.63;2129561;27;20030;-69
2022/08/09 02:27:00;;;;;;;5.78;4.68;;;;;;;9.87;100.00;93692.53;2128576;27;20023;-70
2022/08/09 02:28:25;;;;;;;4.85;4.45;;;;;;;9.98;100.00;93687.09;2129475;27;20027;-72
2022/08/09 02:29:32;;;;;;;5.30;4.90;;;;;;;9.88;100.00;93694.06;2127426;27;20075;-71
2022/08/09 02:30:40;;;;;;;5.10;4.57;;;;;;;9.91;100.00;93703.94;2129411;27;20061;-69
2022/08/09 02:31:46;;;;;;;5.53;4.75;;;;;;;9.89;100.00;93694.81;2129315;27;20026;-70
2022/08/09 02:32:48;;;;;;;5.65;4.68;;;;;;;9.78;100.00;93701.00;2126323;27;20384;-71
2022/08/09 02:33:53;;;;;;;8.15;4.72;;;;;;;9.88;100.00;93696.72;2128677;27;20110;-68
2022/08/09 02:35:01;;;;;;;5.07;4.57;;;;;;;9.90;100.00;93707.00;2128798;27;20022;-71
2022/08/09 02:36:06;;;;;;;5.40;4.68;;;;;;;10.07;100.00;93701.47;2130233;27;20121;-69
2022/08/09 02:37:13;;;;;;;6.93;4.60;;;;;;;10.18;100.00;93695.25;2129359;27;20030;-68
2022/08/09 02:38:20;;;;;;;5.28;4.78;;;;;;;10.08;100.00;93700.31;2128591;27;20050;-70
2022/08/09 02:39:26;;;;;;;5.18;4.60;;;;;;;10.08;100.00;93691.56;2129408;27;20457;-68
2022/08/09 02:40:27;;;;;;;5.88;4.75;;;;;;;10.03;100.00;93695.41;2129385;27;20041;-70
2022/08/09 02:41:37;;;;;;;5.03;4.60;;;;;;;10.02;100.00;93698.50;2129386;27;20102;-68
2022/08/09 02:42:41;;;;;;;5.28;4.88;;;;;;;9.94;100.00;93694.38;2127429;27;20019;-70
2022/08/09 02:43:46;;;;;;;6.18;4.82;;;;;;;9.99;100.00;93694.69;2125287;27;20457;-71
2022/08/09 02:44:55;;;;;;;6.70;4.80;;;;;;;9.92;100.00;93697.44;2129407;27;20035;-71
2022/08/09 02:46:00;;;;;;;5.13;4.65;;;;;;;9.95;100.00;93695.88;2129180;27;20027;-71
2022/08/09 02:47:05;;;;;;;9.02;4.65;;;;;;;9.90;100.00;93690.97;2129103;27;20034;-69
2022/08/09 02:48:10;;;;;;;5.97;4.82;;;;;;;9.81;100.00;93696.78;2128730;27;20030;-69
2022/08/09 02:49:14;;;;;;;9.80;4.57;;;;;;;9.72;100.00;93699.91;2129382;27;20027;-70
2022/08/09 02:50:23;;;;;;;5.97;4.72;;;;;;;9.81;100.00;93692.19;2125507;27;20058;-68
2022/08/09 02:51:27;;;;;;;6.13;4.90;;;;;;;9.77;100.00;93699.47;2129385;27;20103;-69
2022/08/09 02:52:38;;;;;;;6.07;4.88;;;;;;;9.72;100.00;93686.56;2129163;27;20062;-71
2022/08/09 02:53:45;;;;;;;4.80;4.38;;;;;;;9.76;100.00;93695.31;2128508;27;20019;-69
2022/08/09 02:54:49;;;;;;;5.80;4.85;;;;;;;9.78;100.00;93690.31;2125692;27;20372;-68
2022/08/09 02:55:51;;;;;;;5.35;4.82;;;;;;;9.82;100.00;93696.38;2129148;27;20023;-71
2022/08/09 02:56:54;;;;;;;5.35;4.85;;;;;;;9.78;100.00;93694.91;2129335;27;20022;-69
2022/08/09 02:57:55;;;;;;;6.30;4.95;;;;;;;9.74;100.00;93702.94;2129068;27;20023;-71
2022/08/09 02:58:59;;;;;;;5.32;4.55;;;;;;;9.73;100.00;93695.34;2128441;27;20026;-68
2022/08/09 03:00:01;;;;;;;5.45;5.05;;;;;;;9.92;100.00;93697.44;2128468;27;20063;-68
2022/08/09 03:01:04;;;;;;;5.40;4.90;;;;;;;9.82;100.00;93695.63;2128514;27;20382;-70
2022/08/09 03:02:06;;;;;;;5.85;5.30;;;;;;;9.77;100.00;93690.72;2129265;27;20027;-69
2022/08/09 03:03:11;;;;;;;6.40;4.50;;;;;;;9.79;100.00;93691.09;2128973;27;20141;-71
2022/08/09 03:04:13;;;;;;;5.97;4.90;;;;;;;9.72;100.00;93696.50;2128297;27;20045;-75
2022/08/09 03:05:15;;;;;;;7.85;5.28;;;;;;;9.71;100.00;93700.31;2129111;27;20054;-72
2022/08/09 03:06:18;;;;;;;5.47;4.85;;;;;;;9.59;100.00;93698.88;2129194;27;20380;-71
2022/08/09 03:07:20;;;;;;;5.32;4.78;;;;;;;9.66;100.00;93693.50;2129210;27;20115;-73
2022/08/09 03:08:23;;;;;;;6.22;5.47;;;;;;;9.68;100.00;93693.09;2129044;27;20050;-68
2022/08/09 03:09:25;;;;;;;7.07;5.25;;;;;;;9.58;100.00;93684.03;2128724;27;20106;-68
2022/08/09 03:10:26;;;;;;;8.88;5.20;;;;;;;9.60;100.00;93692.38;2129102;27;20123;-74
2022/08/09 03:11:29;;;;;;;5.80;5.28;;;;;;;9.58;100.00;93682.13;2129195;27;20027;-69
2022/08/09 03:12:33;;;;;;;6.35;5.30;;;;;;;9.58;100.00;93689.38;2129201;27;20042;-68
2022/08/09 03:13:35;;;;;;;7.82;5.63;;;;;;;9.59;100.00;93690.88;2128976;27;20098;-71
2022/08/09 03:14:36;;;;;;;5.82;5.32;;;;;;;9.56;100.00;93687.06;2128264;27;20127;-70
2022/08/09 03:15:38;;;;;;;5.85;5.03;;;;;;;9.57;100.00;93691.28;2128992;27;20041;-70
2022/08/09 03:16:41;;;;;;;6.00;4.70;;;;;;;9.63;100.00;93691.59;2128263;27;20129;-70
2022/08/09 03:17:43;;;;;;;5.35;4.85;;;;;;;9.64;100.00;93689.69;2127820;27;20068;-71
2022/08/09 03:18:46;;;;;;;5.60;5.10;;;;;;;9.49;100.00;93686.41;2124964;27;20019;-72
2022/08/09 03:19:47;;;;;;;5.55;5.15;;;;;;;9.45;100.00;93699.78;2128338;27;20034;-71
2022/08/09 03:20:50;;;;;;;5.55;4.82;;;;;;;9.51;100.00;93698.19;2129041;27;20031;-73
2022/08/09 03:21:53;;;;;;;6.10;5.10;;;;;;;9.44;100.00;93684.91;2129180;27;20027;-68
2022/08/09 03:22:55;;;;;;;6.53;5.28;;;;;;;9.41;100.00;93688.38;2128788;27;20365;-71
2022/08/09 03:23:56;;;;;;;5.30;4.82;;;;;;;9.47;100.00;93692.13;2128960;27;20030;-69
2022/08/09 03:24:58;;;;;;;7.20;5.47;;;;;;;9.44;100.00;93695.59;2128299;27;20027;-73
2022/08/09 03:26:00;;;;;;;7.93;4.93;;;;;;;9.45;100.00;93689.09;2124502;27;20031;-72
2022/08/09 03:27:04;;;;;;;6.10;5.50;;;;;;;9.52;100.00;93691.69;2123364;27;20518;-69
2022/08/09 03:28:05;;;;;;;5.68;5.10;;;;;;;9.39;100.00;93692.56;2123320;27;20034;-67
2022/08/09 03:29:06;;;;;;;7.25;5.40;;;;;;;9.31;100.00;93691.88;2123175;27;20027;-68
2022/08/09 03:30:08;;;;;;;5.65;5.15;;;;;;;9.26;100.00;93697.63;2122545;27;20039;-69
2022/08/09 03:31:11;;;;;;;9.00;5.30;;;;;;;9.39;100.00;93696.00;2123294;27;20640;-71
2022/08/09 03:32:13;;;;;;;6.05;5.18;;;;;;;9.45;100.00;93689.09;2119188;27;20050;-69
2022/08/09 03:33:16;;;;;;;6.05;5.03;;;;;;;9.34;100.00;93694.50;2123176;27;20019;-71
2022/08/09 03:34:17;;;;;;;5.40;4.90;;;;;;;9.38;100.00;93699.81;2123160;27;20357;-73
2022/08/09 03:35:18;;;;;;;6.25;5.63;;;;;;;9.42;100.00;93692.53;2121076;27;20034;-69
2022/08/09 03:36:19;;;;;;;6.25;5.25;;;;;;;9.43;100.00;93691.38;2123258;27;20026;-70
2022/08/09 03:37:20;;;;;;;5.72;5.22;;;;;;;9.32;100.00;93690.72;2123298;27;20035;-69
2022/08/09 03:38:22;;;;;;;6.60;5.55;;;;;;;9.30;100.00;93693.00;2123278;27;20022;-68
2022/08/09 03:39:24;;;;;;;6.20;5.70;;;;;;;9.32;100.00;93691.47;2122970;27;20019;-69
2022/08/09 03:40:24;;;;;;;6.03;5.53;;;;;;;9.38;100.00;93696.38;2122815;27;20032;-69
2022/08/09 03:41:25;;;;;;;9.07;5.63;;;;;;;9.38;100.00;93697.16;2123191;27;20035;-71
2022/08/09 03:42:26;;;;;;;5.90;5.30;;;;;;;9.34;100.00;93699.09;2123137;27;20031;-70
2022/08/09 03:43:28;;;;;;;8.38;5.57;;;;;;;9.48;100.00;93699.00;2122485;27;20054;-71
2022/08/09 03:44:29;;;;;;;6.00;5.40;;;;;;;9.36;100.00;93694.13;2122204;27;20025;-70
2022/08/09 03:45:30;;;;;;;5.82;5.32;;;;;;;9.34;100.00;93699.09;2122368;27;20032;-73
2022/08/09 03:46:31;;;;;;;5.88;5.28;;;;;;;9.29;100.00;93700.25;2123200;27;20341;-71
2022/08/09 03:47:32;;;;;;;5.75;5.22;;;;;;;9.31;100.00;93699.88;2123259;27;20086;-70
2022/08/09 03:48:35;;;;;;;5.63;5.13;;;;;;;9.22;100.00;93696.88;2123213;27;20035;-73
2022/08/09 03:49:37;;;;;;;8.60;5.35;;;;;;;9.25;100.00;93696.09;2123163;27;20039;-71
2022/08/09 03:50:39;;;;;;;6.32;5.72;;;;;;;9.20;100.00;93701.84;2122512;27;20115;-73
2022/08/09 03:51:43;;;;;;;5.80;5.30;;;;;;;9.17;100.00;93699.97;2121604;27;20031;-70
2022/08/09 03:52:46;;;;;;;7.05;5.63;;;;;;;9.28;100.00;93704.09;2119326;27;20368;-71
2022/08/09 03:53:48;;;;;;;6.07;5.50;;;;;;;9.27;100.00;93707.16;2123091;27;20084;-72
2022/08/09 03:54:51;;;;;;;5.85;5.35;;;;;;;9.15;100.00;93707.63;2122790;27;20051;-71
2022/08/09 03:55:52;;;;;;;5.88;5.38;;;;;;;9.23;100.00;93704.50;2123117;27;20376;-70
2022/08/09 03:56:53;;;;;;;8.00;5.85;;;;;;;9.25;100.00;93709.44;2122419;27;20015;-73
2022/08/09 03:57:56;;;;;;;5.97;5.43;;;;;;;9.20;100.00;93710.63;2123185;27;20380;-71
2022/08/09 03:58:57;;;;;;;7.70;5.43;;;;;;;9.22;100.00;93711.00;2123184;27;20476;-73
2022/08/09 03:59:58;;;;;;;5.75;5.28;;;;;;;9.10;100.00;93708.03;2123015;27;20030;-71
2022/08/09 04:00:59;;;;;;;6.05;5.43;;;;;;;9.18;100.00;93718.25;2123175;27;20479;-70
2022/08/09 04:02:00;;;;;;;6.43;5.65;;;;;;;9.25;100.00;93712.88;2122353;27;20031;-71
2022/08/09 04:03:02;;;;;;;5.75;5.30;;;;;;;9.22;100.00;93708.34;2123161;27;20034;-70
2022/08/09 04:04:04;;;;;;;6.35;5.72;;;;;;;9.14;100.00;93714.88;2123055;27;20039;-73
2022/08/09 04:05:05;;;;;;;9.10;5.47;;;;;;;9.05;100.00;93707.28;2123124;27;20372;-73
2022/08/09 04:06:06;;;;;;;6.30;5.70;;;;;;;9.20;100.00;93710.63;2123304;27;20035;-71
2022/08/09 04:07:07;;;;;;;6.25;5.65;;;;;;;9.22;100.00;93712.88;2123140;27;20035;-70
2022/08/09 04:08:08;;;;;;;6.20;5.63;;;;;;;9.19;100.00;93705.69;2122456;27;20038;-71
2022/08/09 04:09:09;;;;;;;7.90;5.47;;;;;;;9.17;100.00;93710.63;2123035;27;20114;-71
2022/08/09 04:10:10;;;;;;;6.10;5.55;;;;;;;9.06;100.00;93714.13;2122800;27;20035;-73
2022/08/09 04:11:11;;;;;;;5.93;5.32;;;;;;;9.11;100.00;93714.88;2122939;27;20027;-71
2022/08/09 04:12:13;;;;;;;5.70;5.18;;;;;;;9.14;100.00;93712.19;2118802;27;20072;-70
2022/08/09 04:13:14;;;;;;;5.95;5.28;;;;;;;9.18;100.00;93717.50;2120013;27;20031;-71
2022/08/09 04:14:19;;;;;;;6.90;5.28;;;;;;;9.15;100.00;93720.94;2122077;27;20039;-70
2022/08/09 04:15:23;;;;;;;5.95;5.45;;;;;;;9.28;100.00;93714.00;2122126;27;20488;-70
2022/08/09 04:16:23;;;;;;;6.47;5.25;;;;;;;9.21;100.00;93717.47;2123003;27;20457;-70
2022/08/09 04:17:24;;;;;;;8.00;5.10;;;;;;;9.17;100.00;93719.41;2122913;27;20023;-70
2022/08/09 04:18:25;;;;;;;6.20;5.60;;;;;;;9.23;100.00;93715.19;2122217;27;20034;-73
2022/08/09 04:19:26;;;;;;;6.05;5.55;;;;;;;9.17;100.00;93719.41;2123026;27;20414;-71
2022/08/09 04:20:28;;;;;;;7.75;5.50;;;;;;;9.13;100.00;93717.91;2122999;27;20057;-71
2022/08/09 04:21:29;;;;;;;5.53;5.13;;;;;;;9.27;100.00;93723.91;2123285;27;20417;-70
2022/08/09 04:22:30;;;;;;;6.25;5.75;;;;;;;9.26;100.00;93717.06;2123168;27;20095;-70
2022/08/09 04:23:31;;;;;;;7.85;5.68;;;;;;;9.14;100.00;93722.09;2119510;27;20122;-70
2022/08/09 04:24:32;;;;;;;5.82;5.05;;;;;;;9.15;100.00;93713.69;2123000;27;20020;-73
2022/08/09 04:25:33;;;;;;;7.28;5.82;;;;;;;9.13;100.00;93723.22;2122837;27;20027;-70
2022/08/09 04:26:34;;;;;;;5.68;5.13;;;;;;;9.13;100.00;93721.34;2122964;27;20030;-70
2022/08/09 04:27:40;;;;;;;6.97;5.30;;;;;;;9.07;100.00;93723.66;2122847;27;20026;-70
2022/08/09 04:28:40;;;;;;;5.50;5.10;;;;;;;9.12;100.00;93722.47;2121988;27;20062;-71
2022/08/09 04:29:41;;;;;;;6.03;5.50;;;;;;;9.17;100.00;93723.97;2122337;27;20392;-73
2022/08/09 04:30:42;;;;;;;6.20;5.45;;;;;;;9.11;100.00;93720.97;2118566;27;20449;-73
2022/08/09 04:31:43;;;;;;;6.05;5.45;;;;;;;9.07;100.00;93720.97;2122891;27;20026;-70
2022/08/09 04:32:44;;;;;;;5.88;5.43;;;;;;;9.13;100.00;93725.91;2122923;27;20023;-72
2022/08/09 04:33:45;;;;;;;7.13;5.55;;;;;;;9.17;100.00;93722.06;2122164;27;20034;-73
2022/08/09 04:34:46;;;;;;;6.00;5.10;;;;;;;9.23;100.00;93720.50;2122769;27;20023;-70
2022/08/09 04:35:47;;;;;;;5.32;4.93;;;;;;;9.20;100.00;93721.28;2122572;27;20023;-70
2022/08/09 04:36:48;;;;;;;5.53;5.00;;;;;;;9.22;100.00;93723.56;2122764;27;20027;-74
2022/08/09 04:37:49;;;;;;;5.38;4.97;;;;;;;9.21;100.00;93720.13;2121688;27;20092;-72
2022/08/09 04:38:51;;;;;;;5.40;5.00;;;;;;;9.16;100.00;93717.88;2122073;27;20402;-70
2022/08/09 04:39:52;;;;;;;5.80;4.95;;;;;;;9.27;100.00;93725.81;2122667;27;20488;-71
2022/08/09 04:40:53;;;;;;;5.45;4.95;;;;;;;9.23;100.00;93725.84;2122640;27;20023;-70
2022/08/09 04:41:54;;;;;;;8.07;5.25;;;;;;;9.26;100.00;93727.75;2122542;27;20504;-71
2022/08/09 04:42:54;;;;;;;6.50;5.05;;;;;;;9.42;100.00;93723.81;2122338;27;20648;-73
2022/08/09 04:43:56;;;;;;;5.30;4.80;;;;;;;9.34;100.00;93731.09;2119335;27;20026;-73
2022/08/09 04:44:58;;;;;;;5.72;5.18;;;;;;;9.39;100.00;93727.25;2122631;27;20019;-72
2022/08/09 04:46:00;;;;;;;5.32;4.90;;;;;;;9.38;100.00;93728.41;2122590;27;20027;-70
2022/08/09 04:47:01;;;;;;;5.75;5.25;;;;;;;9.45;100.00;93731.78;2122611;27;20044;-72
2022/08/09 04:48:02;;;;;;;6.57;5.32;;;;;;;9.47;100.00;93734.06;2122627;27;20050;-73
2022/08/09 04:49:03;;;;;;;5.97;5.20;;;;;;;9.52;100.00;93731.72;2121945;27;20059;-72
2022/08/09 04:50:04;;;;;;;5.65;5.18;;;;;;;9.42;100.00;93724.56;2122643;27;20825;-72
2022/08/09 04:51:05;;;;;;;7.68;5.57;;;;;;;9.39;100.00;93736.00;2122624;27;20027;-70
2022/08/09 04:52:06;;;;;;;5.95;4.55;;;;;;;9.41;100.00;93732.97;2121765;27;20109;-70
2022/08/09 04:53:09;;;;;;;6.07;5.53;;;;;;;9.50;100.00;93731.38;2113946;27;20039;-72
2022/08/09 04:54:11;;;;;;;5.25;4.85;;;;;;;9.50;100.00;93736.69;2122025;27;20438;-71
2022/08/09 04:55:13;;;;;;;5.32;4.93;;;;;;;9.56;100.00;93729.78;2117267;27;20034;-71
2022/08/09 04:56:14;;;;;;;5.65;5.15;;;;;;;9.51;100.00;93740.88;2122546;27;20027;-70
2022/08/09 04:57:15;;;;;;;5.60;5.07;;;;;;;9.52;100.00;93739.72;2122609;27;20019;-71
2022/08/09 04:58:16;;;;;;;5.35;4.95;;;;;;;9.61;100.00;93738.53;2122570;27;20360;-70
2022/08/09 04:59:17;;;;;;;6.35;4.95;;;;;;;9.67;100.00;93739.63;2122388;27;20042;-70
2022/08/09 05:00:18;;;;;;;5.65;5.20;;;;;;;9.70;100.00;93736.16;2122486;27;20039;-69
2022/08/09 05:01:19;;;;;;;5.32;4.93;;;;;;;9.70;100.00;93736.16;2122435;27;20023;-72